Eastport Municipal Airport


Codes: KEPM/
Name: Eastport Municipal Airport
City: Eastport
Country: United States
Elevation: 45 ft.

Photos at Eastport Municipal Airport


   Photos courtesy of SpottingLog. You can add your own sightings and photos by signing up for a free trial today.



No photos found.

Weather at Eastport Municipal Airport


Time (UTC)DescriptionTempratureWindCloud coverageVisibilityPressureHumidity
17-Jun-2024 06:00Broken Clouds12°C7 mph, W60%10000m1022hPa74%
17-Jun-2024 09:00Overcast Clouds11°C7 mph, SW89%10000m1023hPa74%
17-Jun-2024 12:00Overcast Clouds13°C9 mph, SW100%10000m1023hPa72%
17-Jun-2024 15:00Overcast Clouds15°C13 mph, SW100%10000m1023hPa72%
17-Jun-2024 18:00Overcast Clouds13°C9 mph, SW100%10000m1022hPa83%
17-Jun-2024 21:00Overcast Clouds13°C9 mph, SW100%10000m1022hPa84%
18-Jun-2024 00:00Light Rain12°C9 mph, S100%10000m1022hPa84%
18-Jun-2024 03:00Light Rain12°C9 mph, S99%10000m1023hPa91%
18-Jun-2024 06:00Overcast Clouds12°C7 mph, S99%10000m1022hPa94%
18-Jun-2024 09:00Overcast Clouds12°C7 mph, S100%10000m1022hPa94%
18-Jun-2024 12:00Overcast Clouds13°C4 mph, S100%10000m1024hPa93%
18-Jun-2024 15:00Overcast Clouds14°C7 mph, N99%0m1024hPa88%
18-Jun-2024 18:00Overcast Clouds15°C7 mph, N100%0m1024hPa86%
18-Jun-2024 21:00Overcast Clouds16°C7 mph, N99%0m1023hPa87%
19-Jun-2024 00:00Overcast Clouds14°C7 mph, S97%6185m1023hPa96%
19-Jun-2024 03:00Overcast Clouds13°C7 mph, SW94%6172m1024hPa99%
19-Jun-2024 06:00Light Rain13°C4 mph, S96%10000m1024hPa98%
19-Jun-2024 09:00Light Rain13°C7 mph, S98%479m1023hPa100%
19-Jun-2024 12:00Broken Clouds14°C4 mph, SW81%8623m1024hPa95%
19-Jun-2024 15:00Scattered Clouds18°C4 mph, S48%2004m1024hPa82%
19-Jun-2024 18:00Scattered Clouds19°C7 mph, S46%2415m1023hPa80%
19-Jun-2024 21:00Few Clouds20°C11 mph, S24%10000m1021hPa78%
20-Jun-2024 00:00Light Rain17°C11 mph, SW36%10000m1021hPa92%
20-Jun-2024 03:00Light Rain16°C7 mph, SW88%10000m1021hPa97%
20-Jun-2024 06:00Light Rain15°C7 mph, SW70%10000m1021hPa99%
20-Jun-2024 09:00Light Rain15°C9 mph, SW92%10000m1020hPa99%
20-Jun-2024 12:00Overcast Clouds18°C7 mph, SW96%10000m1020hPa95%
20-Jun-2024 15:00Overcast Clouds23°C7 mph, W100%10000m1019hPa77%
20-Jun-2024 18:00Overcast Clouds24°C7 mph, W100%10000m1018hPa69%
20-Jun-2024 21:00Overcast Clouds26°C9 mph, NW95%10000m1017hPa63%
21-Jun-2024 00:00Light Rain21°C7 mph, NW97%10000m1019hPa91%
21-Jun-2024 03:00Light Rain19°C7 mph, NW100%10000m1021hPa98%
21-Jun-2024 06:00Overcast Clouds16°C7 mph, NW89%10000m1021hPa77%
21-Jun-2024 09:00Broken Clouds15°C9 mph, NW71%10000m1022hPa80%
21-Jun-2024 12:00Broken Clouds18°C9 mph, N51%10000m1023hPa64%
21-Jun-2024 15:00Scattered Clouds20°C7 mph, N25%10000m1022hPa53%
21-Jun-2024 18:00Broken Clouds21°C2 mph, NE56%10000m1021hPa50%
21-Jun-2024 21:00Overcast Clouds20°C2 mph, NE93%10000m1021hPa54%
22-Jun-2024 00:00Overcast Clouds17°C2 mph, SW96%10000m1021hPa71%
22-Jun-2024 03:00Overcast Clouds16°C7 mph, NE100%10000m1022hPa69%